Admiral — WCY6529 — position and weather

sailwx.info

Track history (hours):
 
Tides and Currents Weather Stations Pressure Air Temp Water Temp Dewpoint Dewpoint Depression Visibility Wind Speed Wind Dir Waves Ship Positions

Admiral

Owner: Crowley Marine Services, SEATTLE, WA. More information available from US FCC via Universal Licensing System and Coast Guard Vessel Documentation Center.

Last reported at 2017-Apr-30 01:00 UTC. Time now 2017-Apr-30 01:27 UTC.
Position N 33°44' W 118°17'.

; draft 5.3 m.

Type: Tug. MMSI: 366755020.

Date/timePositionNaut miles runAvg speedWind from/ knotsBaromVisibWave heightAir tempDewpointWater temp
2017-Apr-30 01:00N 33°44' W 118°17'0 0.0
2017-Apr-30 00:30N 33°44' W 118°17'0 0.0
2017-Apr-29 23:59N 33°44' W 118°17'0 0.0
2017-Apr-29 23:08N 33°44' W 118°17'1 0.1
2017-Apr-29 11:34N 33°44' W 118°15'0 0.1
2017-Apr-29 11:29N 33°44' W 118°15'0 0.0
2017-Apr-29 10:58N 33°44' W 118°15'1 2.4
2017-Apr-29 10:30N 33°44' W 118°17'1 1.0
2017-Apr-29 09:58N 33°44' W 118°17'0 0.0
2017-Apr-29 09:30N 33°44' W 118°17'0 0.0
2017-Apr-29 09:00N 33°44' W 118°17'0 0.0
2017-Apr-29 08:30N 33°44' W 118°17'0 0.0
2017-Apr-29 08:00N 33°44' W 118°17'0 0.0
2017-Apr-29 07:30N 33°44' W 118°17'0 0.0
2017-Apr-29 07:00N 33°44' W 118°17'0 0.0
2017-Apr-29 06:30N 33°44' W 118°17'0 0.0
2017-Apr-29 06:00N 33°44' W 118°17'0 0.0
2017-Apr-29 05:30N 33°44' W 118°17'0 0.0
2017-Apr-29 05:00N 33°44' W 118°17'0 0.0
2017-Apr-29 04:29N 33°44' W 118°17'0 0.0
2017-Apr-29 04:00N 33°44' W 118°17'0 0.0
2017-Apr-29 03:30N 33°44' W 118°17'0 0.0
2017-Apr-29 03:00N 33°44' W 118°17'0 0.0
2017-Apr-29 02:30N 33°44' W 118°17'0 0.0
2017-Apr-29 02:00N 33°44' W 118°17'0 0.0
2017-Apr-29 01:30N 33°44' W 118°17'0 0.0
2017-Apr-29 01:00N 33°44' W 118°17'0 0.0
2017-Apr-29 00:30N 33°44' W 118°17'0 0.0
2017-Apr-29 00:00N 33°44' W 118°17'0 0.0
2017-Apr-28 23:30N 33°44' W 118°17'0 0.0
2017-Apr-28 23:00N 33°44' W 118°17'0 0.0
2017-Apr-28 22:30N 33°44' W 118°17'2 3.9
2017-Apr-28 22:01N 33°43' W 118°15'3 5.8
2017-Apr-28 21:30N 33°45' W 118°12'0 0.9
2017-Apr-28 21:01N 33°44' W 118°12'1 2.0
2017-Apr-28 20:31N 33°44' W 118°13'3 5.4
2017-Apr-28 20:00N 33°44' W 118°17'0 0.2
2017-Apr-28 19:30N 33°44' W 118°17'0 0.0
2017-Apr-28 19:00N 33°44' W 118°17'0 0.0
2017-Apr-28 18:30N 33°44' W 118°17'0 0.0
2017-Apr-28 18:00N 33°44' W 118°17'0 0.0
2017-Apr-28 17:28N 33°44' W 118°17'0 0.0
2017-Apr-28 16:50N 33°44' W 118°17'0 0.0
2017-Apr-28 16:20N 33°44' W 118°17'0 0.0
2017-Apr-28 15:42N 33°44' W 118°17'0 0.0
2017-Apr-28 15:30N 33°44' W 118°17'0 0.0
2017-Apr-28 14:42N 33°44' W 118°17'0 0.0
2017-Apr-28 13:59N 33°44' W 118°17'0 0.4
2017-Apr-28 12:51N 33°44' W 118°17'2 6.6
2017-Apr-28 12:30N 33°43' W 118°14'0 0.2
2017-Apr-28 11:24N 33°43' W 118°14'3 5.2
2017-Apr-28 10:55N 33°44' W 118°17'0 0.0
2017-Apr-28 10:30N 33°44' W 118°17'0 0.0
2017-Apr-28 10:00N 33°44' W 118°17'0 0.0
2017-Apr-28 09:29N 33°44' W 118°17'0 0.0
2017-Apr-28 09:00N 33°44' W 118°17'0 0.0
2017-Apr-28 08:30N 33°44' W 118°17'0 0.0
2017-Apr-28 08:00N 33°44' W 118°17'0 0.0
2017-Apr-28 07:30N 33°44' W 118°17'0 0.0
2017-Apr-28 07:00N 33°44' W 118°17'0 0.0
2017-Apr-28 06:30N 33°44' W 118°17'0 0.0
2017-Apr-28 06:00N 33°44' W 118°17'0 0.0
2017-Apr-28 05:28N 33°44' W 118°17'0 0.0
2017-Apr-28 05:00N 33°44' W 118°17'0 0.0
2017-Apr-28 04:29N 33°44' W 118°17'3 5.7
2017-Apr-28 03:53N 33°43' W 118°13'1 1.4
2017-Apr-28 03:30N 33°44' W 118°13'1 1.3
2017-Apr-28 03:00N 33°44' W 118°14'2 4.3
2017-Apr-28 02:30N 33°44' W 118°16'0 0.1
2017-Apr-28 02:00N 33°44' W 118°16'4 7.2
2017-Apr-28 01:30N 33°44' W 118°12'1 1.5
2017-Apr-28 01:01N 33°44' W 118°11'0 0.1
2017-Apr-28 00:30N 33°44' W 118°11'1 1.7
2017-Apr-27 23:45N 33°45' W 118°13'1 5.4
2017-Apr-27 23:30N 33°44' W 118°13'3 0.2
2017-Apr-27 09:06N 33°44' W 118°17'0 0.0
2017-Apr-27 09:00N 33°44' W 118°17'0 0.0
2017-Apr-27 08:17N 33°44' W 118°17'0 0.0
2017-Apr-27 07:04N 33°44' W 118°17'0 0.0
2017-Apr-27 07:00N 33°44' W 118°17'0 0.0
2017-Apr-27 06:30N 33°44' W 118°17'0 0.0
2017-Apr-27 06:00N 33°44' W 118°17'0 0.0
2017-Apr-27 05:30N 33°44' W 118°17'0 0.0
2017-Apr-27 05:00N 33°44' W 118°17'0 0.0
2017-Apr-27 04:30N 33°44' W 118°17'0 0.0
2017-Apr-27 03:59N 33°44' W 118°17'0 0.0
2017-Apr-27 03:30N 33°44' W 118°17'0 0.0
2017-Apr-27 02:59N 33°44' W 118°17'0 0.0
2017-Apr-27 01:59N 33°44' W 118°17'0 0.0
2017-Apr-27 01:30N 33°44' W 118°17'1 2.6
2017-Apr-27 01:01N 33°43' W 118°16'3 6.1
2017-Apr-27 00:31N 33°45' W 118°13'1 2.5
2017-Apr-27 00:00N 33°46' W 118°14'1 1.3
2017-Apr-26 23:31N 33°46' W 118°13'3 6.7
2017-Apr-26 23:01N 33°43' W 118°15'2 4.0
2017-Apr-26 22:30N 33°44' W 118°17'0 0.0
2017-Apr-26 22:00N 33°44' W 118°17'0 0.0
2017-Apr-26 21:30N 33°44' W 118°17'0 0.0
2017-Apr-26 21:00N 33°44' W 118°17'0 0.0
2017-Apr-26 20:30N 33°44' W 118°17'0 0.0
2017-Apr-26 20:00N 33°44' W 118°17'0 0.0
2017-Apr-26 19:30N 33°44' W 118°17'0 0.0
2017-Apr-26 19:00N 33°44' W 118°17'0 0.0
2017-Apr-26 18:30N 33°44' W 118°17'0 0.0
2017-Apr-26 17:58N 33°44' W 118°17'0 0.0
2017-Apr-26 17:30N 33°44' W 118°17'0 0.0
2017-Apr-26 16:59N 33°44' W 118°17'0 0.0
2017-Apr-26 16:28N 33°44' W 118°17'0 0.0
2017-Apr-26 16:00N 33°44' W 118°17'0 0.0
2017-Apr-26 15:30N 33°44' W 118°17'0 0.0
2017-Apr-26 15:00N 33°44' W 118°17'0 0.0
2017-Apr-26 14:31N 33°44' W 118°17'4 3.7
2017-Apr-26 13:30N 33°45' W 118°12'1 1.4
2017-Apr-26 13:00N 33°44' W 118°12'1 2.9
2017-Apr-26 12:30N 33°44' W 118°14'2 4.1
2017-Apr-26 12:00N 33°43' W 118°16'2 1.5
2017-Apr-26 10:35N 33°46' W 118°16'0 5.0
2017-Apr-26 10:29N 33°45' W 118°16'1 1.4
2017-Apr-26 09:55N 33°44' W 118°17'0 0.0
2017-Apr-26 09:28N 33°44' W 118°17'0 0.0
2017-Apr-26 09:00N 33°44' W 118°17'0 0.0
2017-Apr-26 08:20N 33°44' W 118°17'0 0.0
2017-Apr-26 08:00N 33°44' W 118°17'0 0.0
2017-Apr-26 07:19N 33°44' W 118°17'0 0.0
2017-Apr-26 06:56N 33°44' W 118°17'0 0.0
2017-Apr-26 06:14N 33°44' W 118°17'0 0.0
2017-Apr-26 05:55N 33°44' W 118°17'0 0.0
2017-Apr-26 05:21N 33°44' W 118°17'0 0.0
2017-Apr-26 04:58N 33°44' W 118°17'0 0.0
2017-Apr-26 04:22N 33°44' W 118°17'0 0.0
2017-Apr-26 03:14N 33°44' W 118°17'0 0.0
2017-Apr-26 01:35N 33°44' W 118°17'0 0.0
2017-Apr-26 01:20N 33°44' W 118°17'0 0.0
2017-Apr-26 00:56N 33°44' W 118°17'0 0.0
2017-Apr-26 00:30N 33°44' W 118°17'0 0.0
2017-Apr-26 00:00N 33°44' W 118°17'0 0.0
2017-Apr-25 23:30N 33°44' W 118°17'1 2.7
2017-Apr-25 23:00N 33°46' W 118°16'0 0.5
2017-Apr-25 22:30N 33°45' W 118°17'1 1.5
2017-Apr-25 22:00N 33°45' W 118°16'2 4.8
2017-Apr-25 21:30N 33°43' W 118°15'2 4.8
2017-Apr-25 21:01N 33°45' W 118°13'0 0.7
2017-Apr-25 20:24N 33°45' W 118°13'0 0.0
2017-Apr-25 19:49N 33°45' W 118°13'0 0.6
2017-Apr-25 19:30N 33°45' W 118°13'1 1.8
2017-Apr-25 18:52N 33°46' W 118°13'1 2.3
2017-Apr-25 18:28N 33°45' W 118°13'3 6.9
2017-Apr-25 18:00N 33°43' W 118°15'2 3.6
2017-Apr-25 17:30N 33°44' W 118°17'0 0.0
2017-Apr-25 17:00N 33°44' W 118°17'0 0.0
2017-Apr-25 16:29N 33°44' W 118°17'0 0.0
2017-Apr-25 16:00N 33°44' W 118°17'2 3.4
2017-Apr-25 15:27N 33°46' W 118°15'0 0.2
2017-Apr-25 14:59N 33°46' W 118°15'1 2.9
2017-Apr-25 14:28N 33°45' W 118°16'2 2.5
2017-Apr-25 13:30N 33°43' W 118°15'3 4.2
2017-Apr-25 12:43N 33°44' W 118°12'1 2.1
2017-Apr-25 12:29N 33°44' W 118°12'1 2.7
2017-Apr-25 12:00N 33°43' W 118°11'3 2.9
2017-Apr-25 10:48N 33°43' W 118°15'2 3.1
2017-Apr-25 10:11N 33°44' W 118°17'0 0.0
2017-Apr-25 10:00N 33°44' W 118°17'0 0.0
2017-Apr-25 09:30N 33°44' W 118°17'0 0.0
2017-Apr-25 09:00N 33°44' W 118°17'0 0.0
2017-Apr-25 08:30N 33°44' W 118°17'0 0.0
2017-Apr-25 07:26N 33°44' W 118°17'0 0.0
2017-Apr-25 06:27N 33°44' W 118°17'0 0.0
2017-Apr-25 04:29N 33°44' W 118°17'0 0.0
2017-Apr-25 03:58N 33°44' W 118°17'0 0.0
2017-Apr-25 03:29N 33°44' W 118°17'0 0.0
2017-Apr-25 02:53N 33°44' W 118°17'0 0.0
2017-Apr-25 02:26N 33°44' W 118°17'0 0.0
2017-Apr-25 01:51N 33°44' W 118°17'0 0.0
2017-Apr-25 01:28N 33°44' W 118°17'0 0.8
2017-Apr-25 00:58N 33°44' W 118°17'5 0.3
2017-Apr-24 08:49N 33°44' W 118°11'2 0.6
2017-Apr-24 05:05N 33°45' W 118°13'0 3.2
2017-Apr-24 04:57N 33°45' W 118°13'0 0.4
2017-Apr-24 04:30N 33°45' W 118°13'0 0.1
2017-Apr-24 03:40N 33°45' W 118°13'1 5.3
2017-Apr-24 03:23N 33°44' W 118°13'2 6.5
2017-Apr-24 03:00N 33°43' W 118°16'2 4.1
2017-Apr-24 02:30N 33°45' W 118°17'1 1.2
2017-Apr-24 02:00N 33°46' W 118°17'2 3.2
2017-Apr-24 01:30N 33°44' W 118°17'0 0.0
2017-Apr-24 01:00N 33°44' W 118°17'0 0.0
2017-Apr-24 00:30N 33°44' W 118°17'0 0.0
2017-Apr-24 00:00N 33°44' W 118°17'0 0.0
2017-Apr-23 23:30N 33°44' W 118°17'0 0.0
2017-Apr-23 22:58N 33°44' W 118°17'0 0.0
2017-Apr-23 22:30N 33°44' W 118°17'0 0.0
2017-Apr-23 22:00N 33°44' W 118°17'0 0.0
2017-Apr-23 21:30N 33°44' W 118°17'0 0.0
2017-Apr-23 21:00N 33°44' W 118°17'0 0.0
2017-Apr-23 20:29N 33°44' W 118°17'0 0.0
2017-Apr-23 20:00N 33°44' W 118°17'0 0.0
2017-Apr-23 19:24N 33°44' W 118°17'0 0.0
2017-Apr-23 19:00N 33°44' W 118°17'0 0.0
2017-Apr-23 18:30N 33°44' W 118°17'0 0.0
2017-Apr-23 17:56N 33°44' W 118°17'0 0.0
2017-Apr-23 17:21N 33°44' W 118°17'0 0.0
2017-Apr-23 17:00N 33°44' W 118°17'0 0.0
2017-Apr-23 16:30N 33°44' W 118°17'0 0.0
2017-Apr-23 16:00N 33°44' W 118°17'0 0.0
2017-Apr-23 15:30N 33°44' W 118°17'0 0.0
2017-Apr-23 15:00N 33°44' W 118°17'0 0.0
2017-Apr-23 14:30N 33°44' W 118°17'0 0.0
2017-Apr-23 13:30N 33°44' W 118°17'0 0.2
2017-Apr-23 13:00N 33°44' W 118°17'2 3.2
2017-Apr-23 12:30N 33°44' W 118°15'1 1.1
2017-Apr-23 12:00N 33°44' W 118°15'1 2.5
2017-Apr-23 11:30N 33°43' W 118°15'1 1.6
2017-Apr-23 11:00N 33°43' W 118°16'1 2.8
2017-Apr-23 10:30N 33°44' W 118°17'0 0.0
2017-Apr-23 10:00N 33°44' W 118°17'0 0.0
2017-Apr-23 09:30N 33°44' W 118°17'0 0.0
2017-Apr-23 09:00N 33°44' W 118°17'2 3.7
2017-Apr-23 08:31N 33°43' W 118°15'3 6.1
2017-Apr-23 08:01N 33°45' W 118°13'0 0.2
2017-Apr-23 07:30N 33°45' W 118°13'2 4.3
2017-Apr-23 07:00N 33°44' W 118°11'3 5.8
2017-Apr-23 06:30N 33°41' W 118°10'2 3.2
2017-Apr-23 06:00N 33°41' W 118°08'2 4.7
2017-Apr-23 05:30N 33°42' W 118°11'4 8.9
2017-Apr-23 05:00N 33°43' W 118°16'2 3.2
2017-Apr-23 04:30N 33°44' W 118°17'0 0.0
2017-Apr-23 04:00N 33°44' W 118°17'0 0.0
2017-Apr-23 03:30N 33°44' W 118°17'0 0.0
2017-Apr-23 03:00N 33°44' W 118°17'0 0.0
2017-Apr-23 02:30N 33°44' W 118°17'0 0.0
2017-Apr-23 02:00N 33°44' W 118°17'0 0.0
2017-Apr-23 01:30N 33°44' W 118°17'0 0.0
2017-Apr-23 01:00N 33°44' W 118°17'1 1.8
2017-Apr-23 00:30N 33°44' W 118°16'3 6.7
2017-Apr-23 00:00N 33°44' W 118°12'1 2.1
2017-Apr-22 23:30N 33°45' W 118°12'0 0.3
2017-Apr-22 23:00N 33°45' W 118°12'1 1.6
2017-Apr-22 22:30N 33°45' W 118°13'0 0.0
2017-Apr-22 22:00N 33°45' W 118°13'0 0.7
2017-Apr-22 21:30N 33°45' W 118°13'0 0.4
2017-Apr-22 21:01N 33°45' W 118°13'1 2.6
2017-Apr-22 20:30N 33°44' W 118°13'3 5.7
2017-Apr-22 20:00N 33°44' W 118°17'0 0.0
2017-Apr-22 19:30N 33°44' W 118°17'0 0.0
2017-Apr-22 19:00N 33°44' W 118°17'0 0.0
2017-Apr-22 18:30N 33°44' W 118°17'0 0.0
2017-Apr-22 18:00N 33°44' W 118°17'0 0.0
2017-Apr-22 17:30N 33°44' W 118°17'0 0.0
2017-Apr-22 17:00N 33°44' W 118°17'0 0.0
2017-Apr-22 16:30N 33°44' W 118°17'0 0.0
2017-Apr-22 16:00N 33°44' W 118°17'0 0.0
2017-Apr-22 15:30N 33°44' W 118°17'0 0.0
2017-Apr-22 15:00N 33°44' W 118°17'0 0.0
2017-Apr-22 14:30N 33°44' W 118°17'0 0.0
2017-Apr-22 13:30N 33°44' W 118°17'0 0.0
2017-Apr-22 13:00N 33°44' W 118°17'0 0.0
2017-Apr-22 12:30N 33°44' W 118°17'0 0.0
2017-Apr-22 12:00N 33°44' W 118°17'0 0.0
2017-Apr-22 11:30N 33°44' W 118°17'0 0.0
2017-Apr-22 11:00N 33°44' W 118°17'0 0.0
2017-Apr-22 10:30N 33°44' W 118°17'0 0.0
2017-Apr-22 10:00N 33°44' W 118°17'0 0.0
2017-Apr-22 09:30N 33°44' W 118°17'0 0.0
2017-Apr-22 09:00N 33°44' W 118°17'0 0.0
2017-Apr-22 08:30N 33°44' W 118°17'0 0.0
2017-Apr-22 08:00N 33°44' W 118°17'0 0.0
2017-Apr-22 07:30N 33°44' W 118°17'0 0.0
2017-Apr-22 07:00N 33°44' W 118°17'0 0.0
2017-Apr-22 06:30N 33°44' W 118°17'0 0.0
2017-Apr-22 06:00N 33°44' W 118°17'0 0.0
2017-Apr-22 05:30N 33°44' W 118°17'0 0.0
2017-Apr-22 05:00N 33°44' W 118°17'0 0.0
2017-Apr-22 04:30N 33°44' W 118°17'0 0.0
2017-Apr-22 04:00N 33°44' W 118°17'0 0.0
2017-Apr-22 03:30N 33°44' W 118°17'0 0.0
2017-Apr-22 02:43N 33°44' W 118°17'0 0.0
2017-Apr-22 02:30N 33°44' W 118°17'0 0.0
2017-Apr-22 02:00N 33°44' W 118°17'0 0.0
2017-Apr-22 01:30N 33°44' W 118°17'0 0.0
2017-Apr-22 01:00N 33°44' W 118°17'0 0.0
2017-Apr-22 00:30N 33°44' W 118°17'0 0.0
2017-Apr-21 23:56N 33°44' W 118°17'0 0.0
2017-Apr-21 23:27N 33°44' W 118°17'2 3.5
2017-Apr-21 23:00N 33°43' W 118°16'3 6.5
2017-Apr-21 22:30N 33°45' W 118°13'1 2.1
2017-Apr-21 22:00N 33°46' W 118°13'1 1.2
2017-Apr-21 21:30N 33°46' W 118°13'3 6.7
2017-Apr-21 21:01N 33°43' W 118°15'2 4.1
2017-Apr-21 20:30N 33°44' W 118°17'0 0.0
2017-Apr-21 20:00N 33°44' W 118°17'0 0.0
2017-Apr-21 19:30N 33°44' W 118°17'0 0.0
2017-Apr-21 19:00N 33°44' W 118°17'0 0.0
2017-Apr-21 18:30N 33°44' W 118°17'0 0.0
2017-Apr-21 18:00N 33°44' W 118°17'0 0.0
2017-Apr-21 17:28N 33°44' W 118°17'0 0.0
2017-Apr-21 16:47N 33°44' W 118°17'0 0.0
2017-Apr-21 16:30N 33°44' W 118°17'0 0.0
2017-Apr-21 15:53N 33°44' W 118°17'0 0.0
2017-Apr-21 15:30N 33°44' W 118°17'0 0.0
2017-Apr-21 15:00N 33°44' W 118°17'1 1.0
2017-Apr-21 14:30N 33°44' W 118°16'3 3.4
2017-Apr-21 13:29N 33°45' W 118°12'1 1.2
2017-Apr-21 13:00N 33°44' W 118°12'2 3.2
2017-Apr-21 12:28N 33°44' W 118°10'1 1.7
2017-Apr-21 12:00N 33°44' W 118°11'1 2.4
2017-Apr-21 11:25N 33°45' W 118°12'1 3.2
2017-Apr-21 11:00N 33°44' W 118°13'3 5.9
2017-Apr-21 10:30N 33°44' W 118°17'0 0.4
2017-Apr-21 10:00N 33°44' W 118°17'0 0.0
2017-Apr-21 09:30N 33°44' W 118°17'0 0.0
2017-Apr-21 09:00N 33°44' W 118°17'0 0.0
2017-Apr-21 08:29N 33°44' W 118°17'0 0.0
2017-Apr-21 08:00N 33°44' W 118°17'0 0.0
2017-Apr-21 07:30N 33°44' W 118°17'0 0.0
2017-Apr-21 07:00N 33°44' W 118°17'0 0.0
2017-Apr-21 06:30N 33°44' W 118°17'0 0.0
2017-Apr-21 06:00N 33°44' W 118°17'0 0.0
2017-Apr-21 05:30N 33°44' W 118°17'0 0.0
2017-Apr-21 05:00N 33°44' W 118°17'0 0.0
2017-Apr-21 04:30N 33°44' W 118°17'0 0.0
2017-Apr-21 03:45N 33°44' W 118°17'0 0.0
2017-Apr-21 03:29N 33°44' W 118°17'0 0.0
2017-Apr-21 03:00N 33°44' W 118°17'0 0.0
2017-Apr-21 02:30N 33°44' W 118°17'3 5.4
2017-Apr-21 02:00N 33°43' W 118°14'2 3.2
2017-Apr-21 01:29N 33°45' W 118°12'0 0.1
2017-Apr-21 01:00N 33°45' W 118°12'0 0.4
2017-Apr-21 00:30N 33°45' W 118°12'0 0.3
2017-Apr-21 00:00N 33°45' W 118°12'0 0.1
2017-Apr-20 23:31N 33°45' W 118°12'0 0.2
2017-Apr-20 23:00N 33°45' W 118°12'0 0.0
2017-Apr-20 22:30N 33°45' W 118°12'1 1.5
2017-Apr-20 22:00N 33°44' W 118°12'1 1.6
2017-Apr-20 21:30N 33°45' W 118°12'2 4.5
2017-Apr-20 21:00N 33°43' W 118°14'2 4.2
2017-Apr-20 20:30N 33°44' W 118°16'1 2.7
2017-Apr-20 20:00N 33°45' W 118°16'0 0.0
2017-Apr-20 19:30N 33°45' W 118°16'1 1.9
2017-Apr-20 19:00N 33°44' W 118°17'0 0.0
2017-Apr-20 18:30N 33°44' W 118°17'0 0.0
2017-Apr-20 17:59N 33°44' W 118°17'0 0.0
2017-Apr-20 17:30N 33°44' W 118°17'0 0.0
2017-Apr-20 17:00N 33°44' W 118°17'0 0.0
2017-Apr-20 16:30N 33°44' W 118°17'0 0.0
2017-Apr-20 16:00N 33°44' W 118°17'0 0.0
2017-Apr-20 15:21N 33°44' W 118°17'0 0.0
2017-Apr-20 14:54N 33°44' W 118°17'0 0.0
2017-Apr-20 14:30N 33°44' W 118°17'2 2.2
2017-Apr-20 13:28N 33°43' W 118°15'3 3.4
2017-Apr-20 12:38N 33°45' W 118°12'0 1.1
2017-Apr-20 12:19N 33°45' W 118°12'1 1.5
2017-Apr-20 11:44N 33°44' W 118°12'1 3.1
2017-Apr-20 11:30N 33°44' W 118°12'1 1.3
2017-Apr-20 10:59N 33°45' W 118°12'1 1.4
2017-Apr-20 10:30N 33°44' W 118°12'3 6.5
2017-Apr-20 09:59N 33°43' W 118°16'1 2.4
2017-Apr-20 09:30N 33°44' W 118°17'0 0.0
2017-Apr-20 09:00N 33°44' W 118°17'0 0.0
2017-Apr-20 08:30N 33°44' W 118°17'0 0.0
2017-Apr-20 08:00N 33°44' W 118°17'0 0.0
2017-Apr-20 06:58N 33°44' W 118°17'0 0.0
2017-Apr-20 06:30N 33°44' W 118°17'0 0.0
2017-Apr-20 05:29N 33°44' W 118°17'0 0.0
2017-Apr-20 04:59N 33°44' W 118°17'0 0.0
2017-Apr-20 04:30N 33°44' W 118°17'0 0.0
2017-Apr-20 03:51N 33°44' W 118°17'0 0.0
2017-Apr-20 03:30N 33°44' W 118°17'0 0.0
2017-Apr-20 02:59N 33°44' W 118°17'0 0.0
2017-Apr-20 02:13N 33°44' W 118°17'0 0.0
2017-Apr-20 02:00N 33°44' W 118°17'0 0.0
2017-Apr-20 01:30N 33°44' W 118°17'0 0.0
2017-Apr-20 01:00N 33°44' W 118°17'  
Track history (hours):
 
Tides and Currents Weather Stations Pressure Air Temp Water Temp Dewpoint Dewpoint Depression Visibility Wind Speed Wind Dir Waves Ship Positions

Admiral

Owner: Crowley Marine Services, SEATTLE, WA. More information available from US FCC via Universal Licensing System and Coast Guard Vessel Documentation Center.

Last reported at 2017-Apr-30 01:00 UTC. Time now 2017-Apr-30 01:27 UTC.
Position N 33°44' W 118°17'.

; draft 5.3 m.

Type: Tug. MMSI: 366755020.

Date/timePositionNaut miles runAvg speedWind from/ knotsBaromVisibWave heightAir tempDewpointWater temp
2017-Apr-30 01:00N 33°44' W 118°17'0 0.0
2017-Apr-30 00:30N 33°44' W 118°17'0 0.0
2017-Apr-29 23:59N 33°44' W 118°17'0 0.0
2017-Apr-29 23:08N 33°44' W 118°17'1 0.1
2017-Apr-29 11:34N 33°44' W 118°15'0 0.1
2017-Apr-29 11:29N 33°44' W 118°15'0 0.0
2017-Apr-29 10:58N 33°44' W 118°15'1 2.4
2017-Apr-29 10:30N 33°44' W 118°17'1 1.0
2017-Apr-29 09:58N 33°44' W 118°17'0 0.0
2017-Apr-29 09:30N 33°44' W 118°17'0 0.0
2017-Apr-29 09:00N 33°44' W 118°17'0 0.0
2017-Apr-29 08:30N 33°44' W 118°17'0 0.0
2017-Apr-29 08:00N 33°44' W 118°17'0 0.0
2017-Apr-29 07:30N 33°44' W 118°17'0 0.0
2017-Apr-29 07:00N 33°44' W 118°17'0 0.0
2017-Apr-29 06:30N 33°44' W 118°17'0 0.0
2017-Apr-29 06:00N 33°44' W 118°17'0 0.0
2017-Apr-29 05:30N 33°44' W 118°17'0 0.0
2017-Apr-29 05:00N 33°44' W 118°17'0 0.0
2017-Apr-29 04:29N 33°44' W 118°17'0 0.0
2017-Apr-29 04:00N 33°44' W 118°17'0 0.0
2017-Apr-29 03:30N 33°44' W 118°17'0 0.0
2017-Apr-29 03:00N 33°44' W 118°17'0 0.0
2017-Apr-29 02:30N 33°44' W 118°17'0 0.0
2017-Apr-29 02:00N 33°44' W 118°17'0 0.0
2017-Apr-29 01:30N 33°44' W 118°17'0 0.0
2017-Apr-29 01:00N 33°44' W 118°17'0 0.0
2017-Apr-29 00:30N 33°44' W 118°17'0 0.0
2017-Apr-29 00:00N 33°44' W 118°17'0 0.0
2017-Apr-28 23:30N 33°44' W 118°17'0 0.0
2017-Apr-28 23:00N 33°44' W 118°17'0 0.0
2017-Apr-28 22:30N 33°44' W 118°17'2 3.9
2017-Apr-28 22:01N 33°43' W 118°15'3 5.8
2017-Apr-28 21:30N 33°45' W 118°12'0 0.9
2017-Apr-28 21:01N 33°44' W 118°12'1 2.0
2017-Apr-28 20:31N 33°44' W 118°13'3 5.4
2017-Apr-28 20:00N 33°44' W 118°17'0 0.2
2017-Apr-28 19:30N 33°44' W 118°17'0 0.0
2017-Apr-28 19:00N 33°44' W 118°17'0 0.0
2017-Apr-28 18:30N 33°44' W 118°17'0 0.0
2017-Apr-28 18:00N 33°44' W 118°17'0 0.0
2017-Apr-28 17:28N 33°44' W 118°17'0 0.0
2017-Apr-28 16:50N 33°44' W 118°17'0 0.0
2017-Apr-28 16:20N 33°44' W 118°17'0 0.0
2017-Apr-28 15:42N 33°44' W 118°17'0 0.0
2017-Apr-28 15:30N 33°44' W 118°17'0 0.0
2017-Apr-28 14:42N 33°44' W 118°17'0 0.0
2017-Apr-28 13:59N 33°44' W 118°17'0 0.4
2017-Apr-28 12:51N 33°44' W 118°17'2 6.6
2017-Apr-28 12:30N 33°43' W 118°14'0 0.2
2017-Apr-28 11:24N 33°43' W 118°14'3 5.2
2017-Apr-28 10:55N 33°44' W 118°17'0 0.0
2017-Apr-28 10:30N 33°44' W 118°17'0 0.0
2017-Apr-28 10:00N 33°44' W 118°17'0 0.0
2017-Apr-28 09:29N 33°44' W 118°17'0 0.0
2017-Apr-28 09:00N 33°44' W 118°17'0 0.0
2017-Apr-28 08:30N 33°44' W 118°17'0 0.0
2017-Apr-28 08:00N 33°44' W 118°17'0 0.0
2017-Apr-28 07:30N 33°44' W 118°17'0 0.0
2017-Apr-28 07:00N 33°44' W 118°17'0 0.0
2017-Apr-28 06:30N 33°44' W 118°17'0 0.0
2017-Apr-28 06:00N 33°44' W 118°17'0 0.0
2017-Apr-28 05:28N 33°44' W 118°17'0 0.0
2017-Apr-28 05:00N 33°44' W 118°17'0 0.0
2017-Apr-28 04:29N 33°44' W 118°17'3 5.7
2017-Apr-28 03:53N 33°43' W 118°13'1 1.4
2017-Apr-28 03:30N 33°44' W 118°13'1 1.3
2017-Apr-28 03:00N 33°44' W 118°14'2 4.3
2017-Apr-28 02:30N 33°44' W 118°16'0 0.1
2017-Apr-28 02:00N 33°44' W 118°16'4 7.2
2017-Apr-28 01:30N 33°44' W 118°12'1 1.5
2017-Apr-28 01:01N 33°44' W 118°11'0 0.1
2017-Apr-28 00:30N 33°44' W 118°11'1 1.7
2017-Apr-27 23:45N 33°45' W 118°13'1 5.4
2017-Apr-27 23:30N 33°44' W 118°13'3 0.2
2017-Apr-27 09:06N 33°44' W 118°17'0 0.0
2017-Apr-27 09:00N 33°44' W 118°17'0 0.0
2017-Apr-27 08:17N 33°44' W 118°17'0 0.0
2017-Apr-27 07:04N 33°44' W 118°17'0 0.0
2017-Apr-27 07:00N 33°44' W 118°17'0 0.0
2017-Apr-27 06:30N 33°44' W 118°17'0 0.0
2017-Apr-27 06:00N 33°44' W 118°17'0 0.0
2017-Apr-27 05:30N 33°44' W 118°17'0 0.0
2017-Apr-27 05:00N 33°44' W 118°17'0 0.0
2017-Apr-27 04:30N 33°44' W 118°17'0 0.0
2017-Apr-27 03:59N 33°44' W 118°17'0 0.0
2017-Apr-27 03:30N 33°44' W 118°17'0 0.0
2017-Apr-27 02:59N 33°44' W 118°17'0 0.0
2017-Apr-27 01:59N 33°44' W 118°17'0 0.0
2017-Apr-27 01:30N 33°44' W 118°17'1 2.6
2017-Apr-27 01:01N 33°43' W 118°16'3 6.1
2017-Apr-27 00:31N 33°45' W 118°13'1 2.5
2017-Apr-27 00:00N 33°46' W 118°14'1 1.3
2017-Apr-26 23:31N 33°46' W 118°13'3 6.7
2017-Apr-26 23:01N 33°43' W 118°15'2 4.0
2017-Apr-26 22:30N 33°44' W 118°17'0 0.0
2017-Apr-26 22:00N 33°44' W 118°17'0 0.0
2017-Apr-26 21:30N 33°44' W 118°17'0 0.0
2017-Apr-26 21:00N 33°44' W 118°17'0 0.0
2017-Apr-26 20:30N 33°44' W 118°17'0 0.0
2017-Apr-26 20:00N 33°44' W 118°17'0 0.0
2017-Apr-26 19:30N 33°44' W 118°17'0 0.0
2017-Apr-26 19:00N 33°44' W 118°17'0 0.0
2017-Apr-26 18:30N 33°44' W 118°17'0 0.0
2017-Apr-26 17:58N 33°44' W 118°17'0 0.0
2017-Apr-26 17:30N 33°44' W 118°17'0 0.0
2017-Apr-26 16:59N 33°44' W 118°17'0 0.0
2017-Apr-26 16:28N 33°44' W 118°17'0 0.0
2017-Apr-26 16:00N 33°44' W 118°17'0 0.0
2017-Apr-26 15:30N 33°44' W 118°17'0 0.0
2017-Apr-26 15:00N 33°44' W 118°17'0 0.0
2017-Apr-26 14:31N 33°44' W 118°17'4 3.7
2017-Apr-26 13:30N 33°45' W 118°12'1 1.4
2017-Apr-26 13:00N 33°44' W 118°12'1 2.9
2017-Apr-26 12:30N 33°44' W 118°14'2 4.1
2017-Apr-26 12:00N 33°43' W 118°16'2 1.5
2017-Apr-26 10:35N 33°46' W 118°16'0 5.0
2017-Apr-26 10:29N 33°45' W 118°16'1 1.4
2017-Apr-26 09:55N 33°44' W 118°17'0 0.0
2017-Apr-26 09:28N 33°44' W 118°17'0 0.0
2017-Apr-26 09:00N 33°44' W 118°17'0 0.0
2017-Apr-26 08:20N 33°44' W 118°17'0 0.0
2017-Apr-26 08:00N 33°44' W 118°17'0 0.0
2017-Apr-26 07:19N 33°44' W 118°17'0 0.0
2017-Apr-26 06:56N 33°44' W 118°17'0 0.0
2017-Apr-26 06:14N 33°44' W 118°17'0 0.0
2017-Apr-26 05:55N 33°44' W 118°17'0 0.0
2017-Apr-26 05:21N 33°44' W 118°17'0 0.0
2017-Apr-26 04:58N 33°44' W 118°17'0 0.0
2017-Apr-26 04:22N 33°44' W 118°17'0 0.0
2017-Apr-26 03:14N 33°44' W 118°17'0 0.0
2017-Apr-26 01:35N 33°44' W 118°17'0 0.0
2017-Apr-26 01:20N 33°44' W 118°17'0 0.0
2017-Apr-26 00:56N 33°44' W 118°17'0 0.0
2017-Apr-26 00:30N 33°44' W 118°17'0 0.0
2017-Apr-26 00:00N 33°44' W 118°17'0 0.0
2017-Apr-25 23:30N 33°44' W 118°17'1 2.7
2017-Apr-25 23:00N 33°46' W 118°16'0 0.5
2017-Apr-25 22:30N 33°45' W 118°17'1 1.5
2017-Apr-25 22:00N 33°45' W 118°16'2 4.8
2017-Apr-25 21:30N 33°43' W 118°15'2 4.8
2017-Apr-25 21:01N 33°45' W 118°13'0 0.7
2017-Apr-25 20:24N 33°45' W 118°13'0 0.0
2017-Apr-25 19:49N 33°45' W 118°13'0 0.6
2017-Apr-25 19:30N 33°45' W 118°13'1 1.8
2017-Apr-25 18:52N 33°46' W 118°13'1 2.3
2017-Apr-25 18:28N 33°45' W 118°13'3 6.9
2017-Apr-25 18:00N 33°43' W 118°15'2 3.6
2017-Apr-25 17:30N 33°44' W 118°17'0 0.0
2017-Apr-25 17:00N 33°44' W 118°17'0 0.0
2017-Apr-25 16:29N 33°44' W 118°17'0 0.0
2017-Apr-25 16:00N 33°44' W 118°17'2 3.4
2017-Apr-25 15:27N 33°46' W 118°15'0 0.2
2017-Apr-25 14:59N 33°46' W 118°15'1 2.9
2017-Apr-25 14:28N 33°45' W 118°16'2 2.5
2017-Apr-25 13:30N 33°43' W 118°15'3 4.2
2017-Apr-25 12:43N 33°44' W 118°12'1 2.1
2017-Apr-25 12:29N 33°44' W 118°12'1 2.7
2017-Apr-25 12:00N 33°43' W 118°11'3 2.9
2017-Apr-25 10:48N 33°43' W 118°15'2 3.1
2017-Apr-25 10:11N 33°44' W 118°17'0 0.0
2017-Apr-25 10:00N 33°44' W 118°17'0 0.0
2017-Apr-25 09:30N 33°44' W 118°17'0 0.0
2017-Apr-25 09:00N 33°44' W 118°17'0 0.0
2017-Apr-25 08:30N 33°44' W 118°17'0 0.0
2017-Apr-25 07:26N 33°44' W 118°17'0 0.0
2017-Apr-25 06:27N 33°44' W 118°17'0 0.0
2017-Apr-25 04:29N 33°44' W 118°17'0 0.0
2017-Apr-25 03:58N 33°44' W 118°17'0 0.0
2017-Apr-25 03:29N 33°44' W 118°17'0 0.0
2017-Apr-25 02:53N 33°44' W 118°17'0 0.0
2017-Apr-25 02:26N 33°44' W 118°17'0 0.0
2017-Apr-25 01:51N 33°44' W 118°17'0 0.0
2017-Apr-25 01:28N 33°44' W 118°17'0 0.8
2017-Apr-25 00:58N 33°44' W 118°17'5 0.3
2017-Apr-24 08:49N 33°44' W 118°11'2 0.6
2017-Apr-24 05:05N 33°45' W 118°13'0 3.2
2017-Apr-24 04:57N 33°45' W 118°13'0 0.4
2017-Apr-24 04:30N 33°45' W 118°13'0 0.1
2017-Apr-24 03:40N 33°45' W 118°13'1 5.3
2017-Apr-24 03:23N 33°44' W 118°13'2 6.5
2017-Apr-24 03:00N 33°43' W 118°16'2 4.1
2017-Apr-24 02:30N 33°45' W 118°17'1 1.2
2017-Apr-24 02:00N 33°46' W 118°17'2 3.2
2017-Apr-24 01:30N 33°44' W 118°17'0 0.0
2017-Apr-24 01:00N 33°44' W 118°17'0 0.0
2017-Apr-24 00:30N 33°44' W 118°17'0 0.0
2017-Apr-24 00:00N 33°44' W 118°17'0 0.0
2017-Apr-23 23:30N 33°44' W 118°17'0 0.0
2017-Apr-23 22:58N 33°44' W 118°17'0 0.0
2017-Apr-23 22:30N 33°44' W 118°17'0 0.0
2017-Apr-23 22:00N 33°44' W 118°17'0 0.0
2017-Apr-23 21:30N 33°44' W 118°17'0 0.0
2017-Apr-23 21:00N 33°44' W 118°17'0 0.0
2017-Apr-23 20:29N 33°44' W 118°17'0 0.0
2017-Apr-23 20:00N 33°44' W 118°17'0 0.0
2017-Apr-23 19:24N 33°44' W 118°17'0 0.0
2017-Apr-23 19:00N 33°44' W 118°17'0 0.0
2017-Apr-23 18:30N 33°44' W 118°17'0 0.0
2017-Apr-23 17:56N 33°44' W 118°17'0 0.0
2017-Apr-23 17:21N 33°44' W 118°17'0 0.0
2017-Apr-23 17:00N 33°44' W 118°17'0 0.0
2017-Apr-23 16:30N 33°44' W 118°17'0 0.0
2017-Apr-23 16:00N 33°44' W 118°17'0 0.0
2017-Apr-23 15:30N 33°44' W 118°17'0 0.0
2017-Apr-23 15:00N 33°44' W 118°17'0 0.0
2017-Apr-23 14:30N 33°44' W 118°17'0 0.0
2017-Apr-23 13:30N 33°44' W 118°17'0 0.2
2017-Apr-23 13:00N 33°44' W 118°17'2 3.2
2017-Apr-23 12:30N 33°44' W 118°15'1 1.1
2017-Apr-23 12:00N 33°44' W 118°15'1 2.5
2017-Apr-23 11:30N 33°43' W 118°15'1 1.6
2017-Apr-23 11:00N 33°43' W 118°16'1 2.8
2017-Apr-23 10:30N 33°44' W 118°17'0 0.0
2017-Apr-23 10:00N 33°44' W 118°17'0 0.0
2017-Apr-23 09:30N 33°44' W 118°17'0 0.0
2017-Apr-23 09:00N 33°44' W 118°17'2 3.7
2017-Apr-23 08:31N 33°43' W 118°15'3 6.1
2017-Apr-23 08:01N 33°45' W 118°13'0 0.2
2017-Apr-23 07:30N 33°45' W 118°13'2 4.3
2017-Apr-23 07:00N 33°44' W 118°11'3 5.8
2017-Apr-23 06:30N 33°41' W 118°10'2 3.2
2017-Apr-23 06:00N 33°41' W 118°08'2 4.7
2017-Apr-23 05:30N 33°42' W 118°11'4 8.9
2017-Apr-23 05:00N 33°43' W 118°16'2 3.2
2017-Apr-23 04:30N 33°44' W 118°17'0 0.0
2017-Apr-23 04:00N 33°44' W 118°17'0 0.0
2017-Apr-23 03:30N 33°44' W 118°17'0 0.0
2017-Apr-23 03:00N 33°44' W 118°17'0 0.0
2017-Apr-23 02:30N 33°44' W 118°17'0 0.0
2017-Apr-23 02:00N 33°44' W 118°17'0 0.0
2017-Apr-23 01:30N 33°44' W 118°17'0 0.0
2017-Apr-23 01:00N 33°44' W 118°17'1 1.8
2017-Apr-23 00:30N 33°44' W 118°16'3 6.7
2017-Apr-23 00:00N 33°44' W 118°12'1 2.1
2017-Apr-22 23:30N 33°45' W 118°12'0 0.3
2017-Apr-22 23:00N 33°45' W 118°12'1 1.6
2017-Apr-22 22:30N 33°45' W 118°13'0 0.0
2017-Apr-22 22:00N 33°45' W 118°13'0 0.7
2017-Apr-22 21:30N 33°45' W 118°13'0 0.4
2017-Apr-22 21:01N 33°45' W 118°13'1 2.6
2017-Apr-22 20:30N 33°44' W 118°13'3 5.7
2017-Apr-22 20:00N 33°44' W 118°17'0 0.0
2017-Apr-22 19:30N 33°44' W 118°17'0 0.0
2017-Apr-22 19:00N 33°44' W 118°17'0 0.0
2017-Apr-22 18:30N 33°44' W 118°17'0 0.0
2017-Apr-22 18:00N 33°44' W 118°17'0 0.0
2017-Apr-22 17:30N 33°44' W 118°17'0 0.0
2017-Apr-22 17:00N 33°44' W 118°17'0 0.0
2017-Apr-22 16:30N 33°44' W 118°17'0 0.0
2017-Apr-22 16:00N 33°44' W 118°17'0 0.0
2017-Apr-22 15:30N 33°44' W 118°17'0 0.0
2017-Apr-22 15:00N 33°44' W 118°17'0 0.0
2017-Apr-22 14:30N 33°44' W 118°17'0 0.0
2017-Apr-22 13:30N 33°44' W 118°17'0 0.0
2017-Apr-22 13:00N 33°44' W 118°17'0 0.0
2017-Apr-22 12:30N 33°44' W 118°17'0 0.0
2017-Apr-22 12:00N 33°44' W 118°17'0 0.0
2017-Apr-22 11:30N 33°44' W 118°17'0 0.0
2017-Apr-22 11:00N 33°44' W 118°17'0 0.0
2017-Apr-22 10:30N 33°44' W 118°17'0 0.0
2017-Apr-22 10:00N 33°44' W 118°17'0 0.0
2017-Apr-22 09:30N 33°44' W 118°17'0 0.0
2017-Apr-22 09:00N 33°44' W 118°17'0 0.0
2017-Apr-22 08:30N 33°44' W 118°17'0 0.0
2017-Apr-22 08:00N 33°44' W 118°17'0 0.0
2017-Apr-22 07:30N 33°44' W 118°17'0 0.0
2017-Apr-22 07:00N 33°44' W 118°17'0 0.0
2017-Apr-22 06:30N 33°44' W 118°17'0 0.0
2017-Apr-22 06:00N 33°44' W 118°17'0 0.0
2017-Apr-22 05:30N 33°44' W 118°17'0 0.0
2017-Apr-22 05:00N 33°44' W 118°17'0 0.0
2017-Apr-22 04:30N 33°44' W 118°17'0 0.0
2017-Apr-22 04:00N 33°44' W 118°17'0 0.0
2017-Apr-22 03:30N 33°44' W 118°17'0 0.0
2017-Apr-22 02:43N 33°44' W 118°17'0 0.0
2017-Apr-22 02:30N 33°44' W 118°17'0 0.0
2017-Apr-22 02:00N 33°44' W 118°17'0 0.0
2017-Apr-22 01:30N 33°44' W 118°17'0 0.0
2017-Apr-22 01:00N 33°44' W 118°17'0 0.0
2017-Apr-22 00:30N 33°44' W 118°17'0 0.0
2017-Apr-21 23:56N 33°44' W 118°17'0 0.0
2017-Apr-21 23:27N 33°44' W 118°17'2 3.5
2017-Apr-21 23:00N 33°43' W 118°16'3 6.5
2017-Apr-21 22:30N 33°45' W 118°13'1 2.1
2017-Apr-21 22:00N 33°46' W 118°13'1 1.2
2017-Apr-21 21:30N 33°46' W 118°13'3 6.7
2017-Apr-21 21:01N 33°43' W 118°15'2 4.1
2017-Apr-21 20:30N 33°44' W 118°17'0 0.0
2017-Apr-21 20:00N 33°44' W 118°17'0 0.0
2017-Apr-21 19:30N 33°44' W 118°17'0 0.0
2017-Apr-21 19:00N 33°44' W 118°17'0 0.0
2017-Apr-21 18:30N 33°44' W 118°17'0 0.0
2017-Apr-21 18:00N 33°44' W 118°17'0 0.0
2017-Apr-21 17:28N 33°44' W 118°17'0 0.0
2017-Apr-21 16:47N 33°44' W 118°17'0 0.0
2017-Apr-21 16:30N 33°44' W 118°17'0 0.0
2017-Apr-21 15:53N 33°44' W 118°17'0 0.0
2017-Apr-21 15:30N 33°44' W 118°17'0 0.0
2017-Apr-21 15:00N 33°44' W 118°17'1 1.0
2017-Apr-21 14:30N 33°44' W 118°16'3 3.4
2017-Apr-21 13:29N 33°45' W 118°12'1 1.2
2017-Apr-21 13:00N 33°44' W 118°12'2 3.2
2017-Apr-21 12:28N 33°44' W 118°10'1 1.7
2017-Apr-21 12:00N 33°44' W 118°11'1 2.4
2017-Apr-21 11:25N 33°45' W 118°12'1 3.2
2017-Apr-21 11:00N 33°44' W 118°13'3 5.9
2017-Apr-21 10:30N 33°44' W 118°17'0 0.4
2017-Apr-21 10:00N 33°44' W 118°17'0 0.0
2017-Apr-21 09:30N 33°44' W 118°17'0 0.0
2017-Apr-21 09:00N 33°44' W 118°17'0 0.0
2017-Apr-21 08:29N 33°44' W 118°17'0 0.0
2017-Apr-21 08:00N 33°44' W 118°17'0 0.0
2017-Apr-21 07:30N 33°44' W 118°17'0 0.0
2017-Apr-21 07:00N 33°44' W 118°17'0 0.0
2017-Apr-21 06:30N 33°44' W 118°17'0 0.0
2017-Apr-21 06:00N 33°44' W 118°17'0 0.0
2017-Apr-21 05:30N 33°44' W 118°17'0 0.0
2017-Apr-21 05:00N 33°44' W 118°17'0 0.0
2017-Apr-21 04:30N 33°44' W 118°17'0 0.0
2017-Apr-21 03:45N 33°44' W 118°17'0 0.0
2017-Apr-21 03:29N 33°44' W 118°17'0 0.0
2017-Apr-21 03:00N 33°44' W 118°17'0 0.0
2017-Apr-21 02:30N 33°44' W 118°17'3 5.4
2017-Apr-21 02:00N 33°43' W 118°14'2 3.2
2017-Apr-21 01:29N 33°45' W 118°12'0 0.1
2017-Apr-21 01:00N 33°45' W 118°12'0 0.4
2017-Apr-21 00:30N 33°45' W 118°12'0 0.3
2017-Apr-21 00:00N 33°45' W 118°12'0 0.1
2017-Apr-20 23:31N 33°45' W 118°12'0 0.2
2017-Apr-20 23:00N 33°45' W 118°12'0 0.0
2017-Apr-20 22:30N 33°45' W 118°12'1 1.5
2017-Apr-20 22:00N 33°44' W 118°12'1 1.6
2017-Apr-20 21:30N 33°45' W 118°12'2 4.5
2017-Apr-20 21:00N 33°43' W 118°14'2 4.2
2017-Apr-20 20:30N 33°44' W 118°16'1 2.7
2017-Apr-20 20:00N 33°45' W 118°16'0 0.0
2017-Apr-20 19:30N 33°45' W 118°16'1 1.9
2017-Apr-20 19:00N 33°44' W 118°17'0 0.0
2017-Apr-20 18:30N 33°44' W 118°17'0 0.0
2017-Apr-20 17:59N 33°44' W 118°17'0 0.0
2017-Apr-20 17:30N 33°44' W 118°17'0 0.0
2017-Apr-20 17:00N 33°44' W 118°17'0 0.0
2017-Apr-20 16:30N 33°44' W 118°17'0 0.0
2017-Apr-20 16:00N 33°44' W 118°17'0 0.0
2017-Apr-20 15:21N 33°44' W 118°17'0 0.0
2017-Apr-20 14:54N 33°44' W 118°17'0 0.0
2017-Apr-20 14:30N 33°44' W 118°17'2 2.2
2017-Apr-20 13:28N 33°43' W 118°15'3 3.4
2017-Apr-20 12:38N 33°45' W 118°12'0 1.1
2017-Apr-20 12:19N 33°45' W 118°12'1 1.5
2017-Apr-20 11:44N 33°44' W 118°12'1 3.1
2017-Apr-20 11:30N 33°44' W 118°12'1 1.3
2017-Apr-20 10:59N 33°45' W 118°12'1 1.4
2017-Apr-20 10:30N 33°44' W 118°12'3 6.5
2017-Apr-20 09:59N 33°43' W 118°16'1 2.4
2017-Apr-20 09:30N 33°44' W 118°17'0 0.0
2017-Apr-20 09:00N 33°44' W 118°17'0 0.0
2017-Apr-20 08:30N 33°44' W 118°17'0 0.0
2017-Apr-20 08:00N 33°44' W 118°17'0 0.0
2017-Apr-20 06:58N 33°44' W 118°17'0 0.0
2017-Apr-20 06:30N 33°44' W 118°17'0 0.0
2017-Apr-20 05:29N 33°44' W 118°17'0 0.0
2017-Apr-20 04:59N 33°44' W 118°17'0 0.0
2017-Apr-20 04:30N 33°44' W 118°17'0 0.0
2017-Apr-20 03:51N 33°44' W 118°17'0 0.0
2017-Apr-20 03:30N 33°44' W 118°17'0 0.0
2017-Apr-20 02:59N 33°44' W 118°17'0 0.0
2017-Apr-20 02:13N 33°44' W 118°17'0 0.0
2017-Apr-20 02:00N 33°44' W 118°17'0 0.0
2017-Apr-20 01:30N 33°44' W 118°17'0 0.0
2017-Apr-20 01:00N 33°44' W 118°17'  

Dump ship's entire track history